sensor_id;sensor_type;location;lat;lon;timestamp;pressure;altitude;pressure_sealevel;temperature;humidity
41513;BME280;27244;59.940;30.280;2023-03-01T00:00:20;101188.75;;;24.08;31.52
41513;BME280;27244;59.940;30.280;2023-03-01T00:02:48;101198.34;;;24.10;31.45
41513;BME280;27244;59.940;30.280;2023-03-01T00:05:16;101192.72;;;24.10;31.53
41513;BME280;27244;59.940;30.280;2023-03-01T00:07:42;101191.56;;;24.08;31.67
41513;BME280;27244;59.940;30.280;2023-03-01T00:10:11;101196.66;;;24.16;31.57
41513;BME280;27244;59.940;30.280;2023-03-01T00:12:37;101196.72;;;24.13;31.69
41513;BME280;27244;59.940;30.280;2023-03-01T00:15:05;101205.53;;;24.15;31.84
41513;BME280;27244;59.940;30.280;2023-03-01T00:17:32;101201.50;;;24.16;31.56
41513;BME280;27244;59.940;30.280;2023-03-01T00:20:01;101208.69;;;24.17;31.63
41513;BME280;27244;59.940;30.280;2023-03-01T00:22:28;101198.31;;;24.14;31.67
41513;BME280;27244;59.940;30.280;2023-03-01T00:24:55;101208.34;;;24.15;31.68
41513;BME280;27244;59.940;30.280;2023-03-01T00:27:22;101215.22;;;24.14;31.95
41513;BME280;27244;59.940;30.280;2023-03-01T00:29:49;101205.25;;;24.09;31.89
41513;BME280;27244;59.940;30.280;2023-03-01T00:32:16;101211.59;;;24.13;32.03
41513;BME280;27244;59.940;30.280;2023-03-01T00:34:42;101207.69;;;24.07;32.15
41513;BME280;27244;59.940;30.280;2023-03-01T00:37:21;101203.56;;;24.12;31.93
41513;BME280;27244;59.940;30.280;2023-03-01T00:39:48;101203.56;;;24.12;31.97
41513;BME280;27244;59.940;30.280;2023-03-01T00:42:16;101202.44;;;24.09;32.09
41513;BME280;27244;59.940;30.280;2023-03-01T00:44:43;101191.56;;;24.08;31.90
41513;BME280;27244;59.940;30.280;2023-03-01T00:47:10;101202.34;;;24.13;31.84
41513;BME280;27244;59.940;30.280;2023-03-01T00:49:37;101211.19;;;24.15;31.96
41513;BME280;27244;59.940;30.280;2023-03-01T00:52:04;101209.50;;;24.17;31.96
41513;BME280;27244;59.940;30.280;2023-03-01T00:54:33;101206.34;;;24.15;32.24
41513;BME280;27244;59.940;30.280;2023-03-01T00:56:59;101205.47;;;24.18;31.90
41513;BME280;27244;59.940;30.280;2023-03-01T00:59:26;101201.41;;;24.19;31.99
41513;BME280;27244;59.940;30.280;2023-03-01T01:01:53;101201.41;;;24.19;31.78
41513;BME280;27244;59.940;30.280;2023-03-01T01:04:21;101195.69;;;24.23;31.86
41513;BME280;27244;59.940;30.280;2023-03-01T01:06:48;101205.31;;;24.25;31.89
41513;BME280;27244;59.940;30.280;2023-03-01T01:09:16;101214.63;;;24.22;31.80
41513;BME280;27244;59.940;30.280;2023-03-01T01:11:45;101198.16;;;24.21;32.06
41513;BME280;27244;59.940;30.280;2023-03-01T01:14:12;101205.72;;;24.24;31.88
41513;BME280;27244;59.940;30.280;2023-03-01T01:16:40;101209.78;;;24.23;32.09
41513;BME280;27244;59.940;30.280;2023-03-01T01:19:07;101207.84;;;24.20;32.13
41513;BME280;27244;59.940;30.280;2023-03-01T01:21:34;101203.78;;;24.21;32.04
41513;BME280;27244;59.940;30.280;2023-03-01T01:24:03;101212.25;;;24.21;32.06
41513;BME280;27244;59.940;30.280;2023-03-01T01:26:32;101207.06;;;24.19;31.86
41513;BME280;27244;59.940;30.280;2023-03-01T01:29:02;101216.66;;;24.22;31.85
41513;BME280;27244;59.940;30.280;2023-03-01T01:31:30;101207.94;;;24.16;31.91
41513;BME280;27244;59.940;30.280;2023-03-01T01:34:00;101219.06;;;24.23;32.03
41513;BME280;27244;59.940;30.280;2023-03-01T01:36:28;101209.00;;;24.22;31.89
41513;BME280;27244;59.940;30.280;2023-03-01T01:38:55;101209.00;;;24.22;32.11
41513;BME280;27244;59.940;30.280;2023-03-01T01:41:24;101209.88;;;24.19;31.85
41513;BME280;27244;59.940;30.280;2023-03-01T01:44:17;101214.91;;;24.28;31.85
41513;BME280;27244;59.940;30.280;2023-03-01T01:46:48;101214.56;;;24.26;31.90
41513;BME280;27244;59.940;30.280;2023-03-01T01:49:29;101214.81;;;24.31;31.81
41513;BME280;27244;59.940;30.280;2023-03-01T01:52:06;101215.69;;;24.28;31.75
41513;BME280;27244;59.940;30.280;2023-03-01T01:54:40;101207.31;;;24.25;31.73
41513;BME280;27244;59.940;30.280;2023-03-01T01:57:12;101206.91;;;24.26;31.75
41513;BME280;27244;59.940;30.280;2023-03-01T01:59:45;101214.09;;;24.27;31.69
41513;BME280;27244;59.940;30.280;2023-03-01T02:02:14;101211.72;;;24.26;31.82
41513;BME280;27244;59.940;30.280;2023-03-01T02:04:41;101214.19;;;24.24;31.67
41513;BME280;27244;59.940;30.280;2023-03-01T02:07:14;101210.59;;;24.23;31.78
41513;BME280;27244;59.940;30.280;2023-03-01T02:09:45;101223.00;;;24.26;31.75
41513;BME280;27244;59.940;30.280;2023-03-01T02:12:14;101233.91;;;24.24;31.64
41513;BME280;27244;59.940;30.280;2023-03-01T02:14:42;101226.63;;;24.26;31.66
41513;BME280;27244;59.940;30.280;2023-03-01T02:17:10;101228.72;;;24.22;31.68
41513;BME280;27244;59.940;30.280;2023-03-01T02:19:52;101240.19;;;24.31;31.44
41513;BME280;27244;59.940;30.280;2023-03-01T02:22:23;101240.44;;;24.21;31.29
41513;BME280;27244;59.940;30.280;2023-03-01T02:25:01;101235.59;;;24.21;30.39
41513;BME280;27244;59.940;30.280;2023-03-01T02:27:38;101238.56;;;24.14;29.33
41513;BME280;27244;59.940;30.280;2023-03-01T02:30:10;101226.69;;;24.03;28.52
41513;BME280;27244;59.940;30.280;2023-03-01T02:32:38;101235.59;;;24.01;28.06
41513;BME280;27244;59.940;30.280;2023-03-01T02:35:09;101238.91;;;23.96;27.78
41513;BME280;27244;59.940;30.280;2023-03-01T02:37:38;101234.56;;;23.92;27.05
41513;BME280;27244;59.940;30.280;2023-03-01T02:40:08;101232.72;;;23.85;26.82
41513;BME280;27244;59.940;30.280;2023-03-01T02:42:43;101247.94;;;23.88;26.57
41513;BME280;27244;59.940;30.280;2023-03-01T02:45:14;101247.22;;;23.84;26.16
41513;BME280;27244;59.940;30.280;2023-03-01T02:47:42;101248.09;;;23.81;25.99
41513;BME280;27244;59.940;30.280;2023-03-01T02:50:17;101240.44;;;23.81;25.95
41513;BME280;27244;59.940;30.280;2023-03-01T02:52:55;101240.88;;;23.80;25.70
41513;BME280;27244;59.940;30.280;2023-03-01T02:55:26;101238.22;;;23.73;25.39
41513;BME280;27244;59.940;30.280;2023-03-01T02:57:53;101241.88;;;23.70;25.21
41513;BME280;27244;59.940;30.280;2023-03-01T03:00:26;101236.31;;;23.66;25.10
41513;BME280;27244;59.940;30.280;2023-03-01T03:02:55;101233.63;;;23.59;24.86
41513;BME280;27244;59.940;30.280;2023-03-01T03:05:25;101245.28;;;23.61;24.79
41513;BME280;27244;59.940;30.280;2023-03-01T03:07:56;101242.47;;;23.61;24.70
41513;BME280;27244;59.940;30.280;2023-03-01T03:10:27;101241.28;;;23.59;24.54
41513;BME280;27244;59.940;30.280;2023-03-01T03:12:56;101239.25;;;23.59;24.34
41513;BME280;27244;59.940;30.280;2023-03-01T03:15:26;101232.84;;;23.59;24.29
41513;BME280;27244;59.940;30.280;2023-03-01T03:17:55;101235.72;;;23.55;24.21
41513;BME280;27244;59.940;30.280;2023-03-01T03:20:24;101235.72;;;23.55;24.25
41513;BME280;27244;59.940;30.280;2023-03-01T03:22:54;101234.56;;;23.52;24.12
41513;BME280;27244;59.940;30.280;2023-03-01T03:25:21;101234.22;;;23.50;23.88
41513;BME280;27244;59.940;30.280;2023-03-01T03:27:50;101251.09;;;23.50;23.75
41513;BME280;27244;59.940;30.280;2023-03-01T03:30:25;101245.09;;;23.48;23.56
41513;BME280;27244;59.940;30.280;2023-03-01T03:32:52;101251.97;;;23.47;23.51
41513;BME280;27244;59.940;30.280;2023-03-01T03:35:22;101253.63;;;23.45;23.59
41513;BME280;27244;59.940;30.280;2023-03-01T03:37:50;101243.22;;;23.42;23.38
41513;BME280;27244;59.940;30.280;2023-03-01T03:40:33;101244.84;;;23.39;23.09
41513;BME280;27244;59.940;30.280;2023-03-01T03:43:00;101255.31;;;23.39;23.38
41513;BME280;27244;59.940;30.280;2023-03-01T03:45:29;101256.13;;;23.39;23.30
41513;BME280;27244;59.940;30.280;2023-03-01T03:47:58;101249.31;;;23.37;23.34
41513;BME280;27244;59.940;30.280;2023-03-01T03:50:25;101252.56;;;23.35;23.01
41513;BME280;27244;59.940;30.280;2023-03-01T03:52:52;101254.56;;;23.35;23.01
41513;BME280;27244;59.940;30.280;2023-03-01T03:55:19;101255.00;;;23.33;22.95
41513;BME280;27244;59.940;30.280;2023-03-01T03:57:47;101252.25;;;23.30;23.10
41513;BME280;27244;59.940;30.280;2023-03-01T04:00:18;101265.91;;;23.31;22.83
41513;BME280;27244;59.940;30.280;2023-03-01T04:02:48;101263.16;;;23.28;22.99
41513;BME280;27244;59.940;30.280;2023-03-01T04:05:17;101262.72;;;23.29;22.95
41513;BME280;27244;59.940;30.280;2023-03-01T04:07:45;101271.59;;;23.28;23.05
41513;BME280;27244;59.940;30.280;2023-03-01T04:10:13;101267.19;;;23.27;22.85
41513;BME280;27244;59.940;30.280;2023-03-01T04:12:40;101267.19;;;23.27;22.80
41513;BME280;27244;59.940;30.280;2023-03-01T04:15:10;101266.81;;;23.25;22.71
41513;BME280;27244;59.940;30.280;2023-03-01T04:17:39;101254.03;;;23.20;22.89
41513;BME280;27244;59.940;30.280;2023-03-01T04:20:10;101258.75;;;23.27;23.15
41513;BME280;27244;59.940;30.280;2023-03-01T04:22:38;101258.38;;;23.25;22.68
41513;BME280;27244;59.940;30.280;2023-03-01T04:25:05;101258.81;;;23.23;22.79
41513;BME280;27244;59.940;30.280;2023-03-01T04:27:33;101261.69;;;23.20;22.74
41513;BME280;27244;59.940;30.280;2023-03-01T04:30:00;101260.09;;;23.19;22.77
41513;BME280;27244;59.940;30.280;2023-03-01T04:32:27;101253.28;;;23.16;22.76
41513;BME280;27244;59.940;30.280;2023-03-01T04:34:54;101258.88;;;23.20;22.73
41513;BME280;27244;59.940;30.280;2023-03-01T04:37:23;101264.50;;;23.20;22.31
41513;BME280;27244;59.940;30.280;2023-03-01T04:39:50;101266.16;;;23.17;22.47
41513;BME280;27244;59.940;30.280;2023-03-01T04:42:18;101247.38;;;23.11;22.49
41513;BME280;27244;59.940;30.280;2023-03-01T04:44:45;101254.97;;;23.14;22.69
41513;BME280;27244;59.940;30.280;2023-03-01T04:47:12;101254.63;;;23.08;22.79
41513;BME280;27244;59.940;30.280;2023-03-01T04:49:39;101256.22;;;23.09;23.02
41513;BME280;27244;59.940;30.280;2023-03-01T04:52:07;101271.84;;;23.14;23.00
41513;BME280;27244;59.940;30.280;2023-03-01T04:54:36;101285.13;;;23.13;22.87
41513;BME280;27244;59.940;30.280;2023-03-01T04:57:03;101289.59;;;23.11;22.91
41513;BME280;27244;59.940;30.280;2023-03-01T04:59:30;101294.03;;;23.08;23.16
41513;BME280;27244;59.940;30.280;2023-03-01T05:01:57;101303.28;;;23.09;23.04
41513;BME280;27244;59.940;30.280;2023-03-01T05:04:25;101307.34;;;23.08;23.08
41513;BME280;27244;59.940;30.280;2023-03-01T05:06:52;101308.53;;;23.07;23.11
41513;BME280;27244;59.940;30.280;2023-03-01T05:09:20;101308.53;;;23.07;22.97
41513;BME280;27244;59.940;30.280;2023-03-01T05:11:48;101311.72;;;23.09;22.95
41513;BME280;27244;59.940;30.280;2023-03-01T05:14:17;101314.19;;;23.07;23.10
41513;BME280;27244;59.940;30.280;2023-03-01T05:16:44;101317.41;;;23.05;23.23
41513;BME280;27244;59.940;30.280;2023-03-01T05:19:11;101316.19;;;23.06;23.06
41513;BME280;27244;59.940;30.280;2023-03-01T05:21:41;101316.19;;;23.06;23.11
41513;BME280;27244;59.940;30.280;2023-03-01T05:24:22;101304.06;;;23.09;22.89
41513;BME280;27244;59.940;30.280;2023-03-01T05:26:50;101316.88;;;23.14;22.78
41513;BME280;27244;59.940;30.280;2023-03-01T05:29:18;101311.31;;;23.10;22.64
41513;BME280;27244;59.940;30.280;2023-03-01T05:31:51;101308.84;;;23.12;22.57
41513;BME280;27244;59.940;30.280;2023-03-01T05:34:18;101296.78;;;23.12;22.40
41513;BME280;27244;59.940;30.280;2023-03-01T05:36:48;101309.22;;;23.14;22.56
41513;BME280;27244;59.940;30.280;2023-03-01T05:39:19;101312.03;;;23.14;22.42
41513;BME280;27244;59.940;30.280;2023-03-01T05:41:48;101311.59;;;23.16;22.49
41513;BME280;27244;59.940;30.280;2023-03-01T05:44:16;101304.41;;;23.15;22.43
41513;BME280;27244;59.940;30.280;2023-03-01T05:46:43;101314.41;;;23.16;22.49
41513;BME280;27244;59.940;30.280;2023-03-01T05:49:10;101317.97;;;23.20;22.44
41513;BME280;27244;59.940;30.280;2023-03-01T05:51:38;101317.16;;;23.19;22.69
41513;BME280;27244;59.940;30.280;2023-03-01T05:54:05;101312.34;;;23.20;22.59
41513;BME280;27244;59.940;30.280;2023-03-01T05:56:33;101316.75;;;23.21;22.67
41513;BME280;27244;59.940;30.280;2023-03-01T05:59:00;101310.78;;;23.19;22.69
41513;BME280;27244;59.940;30.280;2023-03-01T06:01:29;101314.34;;;23.19;22.56
41513;BME280;27244;59.940;30.280;2023-03-01T06:03:56;101314.75;;;23.21;22.31
41513;BME280;27244;59.940;30.280;2023-03-01T06:06:23;101312.72;;;23.22;22.30
41513;BME280;27244;59.940;30.280;2023-03-01T06:08:50;101307.09;;;23.22;22.35
41513;BME280;27244;59.940;30.280;2023-03-01T06:11:17;101319.91;;;23.23;22.28
41513;BME280;27244;59.940;30.280;2023-03-01T06:13:44;101303.03;;;23.23;22.23
41513;BME280;27244;59.940;30.280;2023-03-01T06:16:12;101304.69;;;23.20;22.22
41513;BME280;27244;59.940;30.280;2023-03-01T06:18:40;101310.72;;;23.22;22.10
41513;BME280;27244;59.940;30.280;2023-03-01T06:21:08;101308.78;;;23.16;21.91
41513;BME280;27244;59.940;30.280;2023-03-01T06:23:36;101311.88;;;23.25;21.85
41513;BME280;27244;59.940;30.280;2023-03-01T06:26:05;101302.63;;;23.24;21.95
41513;BME280;27244;59.940;30.280;2023-03-01T06:28:33;101300.22;;;23.23;21.84
41513;BME280;27244;59.940;30.280;2023-03-01T06:31:00;101304.69;;;23.20;21.87
41513;BME280;27244;59.940;30.280;2023-03-01T06:33:27;101312.28;;;23.23;21.78
41513;BME280;27244;59.940;30.280;2023-03-01T06:35:55;101309.84;;;23.25;21.76
41513;BME280;27244;59.940;30.280;2023-03-01T06:38:23;101304.69;;;23.20;21.93
41513;BME280;27244;59.940;30.280;2023-03-01T06:40:54;101302.97;;;23.26;21.91
41513;BME280;27244;59.940;30.280;2023-03-01T06:43:22;101300.22;;;23.23;21.74
41513;BME280;27244;59.940;30.280;2023-03-01T06:45:49;101302.31;;;23.19;21.88
41513;BME280;27244;59.940;30.280;2023-03-01T06:48:16;101303.84;;;23.23;21.92
41513;BME280;27244;59.940;30.280;2023-03-01T06:50:43;101316.69;;;23.24;21.89
41513;BME280;27244;59.940;30.280;2023-03-01T06:53:11;101314.75;;;23.21;22.02
41513;BME280;27244;59.940;30.280;2023-03-01T06:55:38;101309.47;;;23.23;21.97
41513;BME280;27244;59.940;30.280;2023-03-01T06:58:05;101307.44;;;23.24;21.91
41513;BME280;27244;59.940;30.280;2023-03-01T07:00:32;101311.06;;;23.24;21.85
41513;BME280;27244;59.940;30.280;2023-03-01T07:03:00;101305.50;;;23.21;22.00
41513;BME280;27244;59.940;30.280;2023-03-01T07:05:28;101316.69;;;23.24;21.94
41513;BME280;27244;59.940;30.280;2023-03-01T07:07:55;101311.06;;;23.24;21.79
41513;BME280;27244;59.940;30.280;2023-03-01T07:10:23;101292.28;;;23.18;21.59
41513;BME280;27244;59.940;30.280;2023-03-01T07:12:52;101308.59;;;23.26;21.66
41513;BME280;27244;59.940;30.280;2023-03-01T07:15:20;101311.34;;;23.30;21.69
41513;BME280;27244;59.940;30.280;2023-03-01T07:17:47;101312.59;;;23.29;22.16
41513;BME280;27244;59.940;30.280;2023-03-01T07:20:16;101311.75;;;23.32;22.25
41513;BME280;27244;59.940;30.280;2023-03-01T07:22:43;101308.47;;;23.33;22.34
41513;BME280;27244;59.940;30.280;2023-03-01T07:25:10;101308.94;;;23.32;22.34
41513;BME280;27244;59.940;30.280;2023-03-01T07:27:39;101318.13;;;23.36;22.76
41513;BME280;27244;59.940;30.280;2023-03-01T07:30:07;101297.28;;;23.30;22.78
41513;BME280;27244;59.940;30.280;2023-03-01T07:32:34;101300.41;;;23.35;22.91
41513;BME280;27244;59.940;30.280;2023-03-01T07:35:01;101308.06;;;23.35;22.96
41513;BME280;27244;59.940;30.280;2023-03-01T07:37:28;101298.41;;;23.36;23.15
41513;BME280;27244;59.940;30.280;2023-03-01T07:39:55;101312.84;;;23.38;23.39
41513;BME280;27244;59.940;30.280;2023-03-01T07:42:23;101294.00;;;23.35;23.48
41513;BME280;27244;59.940;30.280;2023-03-01T07:44:51;101300.34;;;23.39;23.56
41513;BME280;27244;59.940;30.280;2023-03-01T07:47:18;101310.41;;;23.40;23.79
41513;BME280;27244;59.940;30.280;2023-03-01T07:49:45;101308.38;;;23.40;23.82
41513;BME280;27244;59.940;30.280;2023-03-01T07:52:12;101294.72;;;23.39;24.10
41513;BME280;27244;59.940;30.280;2023-03-01T07:54:42;101285.84;;;23.44;24.19
41513;BME280;27244;59.940;30.280;2023-03-01T07:57:09;101271.47;;;23.35;24.44
41513;BME280;27244;59.940;30.280;2023-03-01T07:59:36;101275.78;;;23.43;24.47
41513;BME280;27244;59.940;30.280;2023-03-01T08:02:05;101277.81;;;23.42;24.39
41513;BME280;27244;59.940;30.280;2023-03-01T08:04:32;101262.22;;;23.34;24.92
41513;BME280;27244;59.940;30.280;2023-03-01T08:06:59;101254.47;;;23.42;24.87
41513;BME280;27244;59.940;30.280;2023-03-01T08:09:26;101256.50;;;23.41;24.98
41513;BME280;27244;59.940;30.280;2023-03-01T08:11:53;101255.22;;;23.46;25.77
41513;BME280;27244;59.940;30.280;2023-03-01T08:14:21;101276.47;;;23.50;26.37
41513;BME280;27244;59.940;30.280;2023-03-01T08:16:49;101260.84;;;23.46;25.68
41513;BME280;27244;59.940;30.280;2023-03-01T08:19:17;101260.34;;;23.51;26.42
41513;BME280;27244;59.940;30.280;2023-03-01T08:21:44;101255.22;;;23.46;26.09
41513;BME280;27244;59.940;30.280;2023-03-01T08:24:11;101267.22;;;23.50;26.37
41513;BME280;27244;59.940;30.280;2023-03-01T08:26:38;101260.44;;;23.47;26.06
41513;BME280;27244;59.940;30.280;2023-03-01T08:29:05;101248.03;;;23.41;25.89
41513;BME280;27244;59.940;30.280;2023-03-01T08:31:34;101272.84;;;23.50;25.96
41513;BME280;27244;59.940;30.280;2023-03-01T08:34:04;101272.47;;;23.48;25.91
41513;BME280;27244;59.940;30.280;2023-03-01T08:36:35;101268.34;;;23.52;25.96
41513;BME280;27244;59.940;30.280;2023-03-01T08:39:04;101281.63;;;23.52;25.91
41513;BME280;27244;59.940;30.280;2023-03-01T08:41:31;101278.47;;;23.50;25.96
41513;BME280;27244;59.940;30.280;2023-03-01T08:43:58;101267.22;;;23.50;25.86
41513;BME280;27244;59.940;30.280;2023-03-01T08:46:25;101264.75;;;23.52;25.95
41513;BME280;27244;59.940;30.280;2023-03-01T08:48:52;101268.00;;;23.50;25.83
41513;BME280;27244;59.940;30.280;2023-03-01T08:51:21;101271.97;;;23.53;25.92
41513;BME280;27244;59.940;30.280;2023-03-01T08:53:49;101267.56;;;23.52;26.00
41513;BME280;27244;59.940;30.280;2023-03-01T08:56:17;101267.22;;;23.50;25.97
41513;BME280;27244;59.940;30.280;2023-03-01T08:58:45;101265.53;;;23.52;26.01
41513;BME280;27244;59.940;30.280;2023-03-01T09:01:14;101259.97;;;23.49;26.21
41513;BME280;27244;59.940;30.280;2023-03-01T09:03:41;101263.19;;;23.51;25.86
41513;BME280;27244;59.940;30.280;2023-03-01T09:06:09;101259.97;;;23.49;26.17
41513;BME280;27244;59.940;30.280;2023-03-01T09:08:38;101263.19;;;23.51;26.13
41513;BME280;27244;59.940;30.280;2023-03-01T09:11:09;101235.84;;;23.48;26.21
41513;BME280;27244;59.940;30.280;2023-03-01T09:13:36;101243.47;;;23.51;26.16
41513;BME280;27244;59.940;30.280;2023-03-01T09:16:06;101247.78;;;23.56;26.29
41513;BME280;27244;59.940;30.280;2023-03-01T09:18:34;101248.22;;;23.54;26.15
41513;BME280;27244;59.940;30.280;2023-03-01T09:21:02;101251.84;;;23.55;26.13
41513;BME280;27244;59.940;30.280;2023-03-01T09:23:32;101228.72;;;23.43;26.19
41513;BME280;27244;59.940;30.280;2023-03-01T09:26:00;101245.41;;;23.54;26.23
41513;BME280;27244;59.940;30.280;2023-03-01T09:28:28;101240.56;;;23.55;26.19
41513;BME280;27244;59.940;30.280;2023-03-01T09:30:57;101249.78;;;23.55;26.21
41513;BME280;27244;59.940;30.280;2023-03-01T09:33:25;101244.16;;;23.55;26.23
41513;BME280;27244;59.940;30.280;2023-03-01T09:35:56;101246.13;;;23.58;26.20
41513;BME280;27244;59.940;30.280;2023-03-01T09:38:23;101221.50;;;23.42;26.31
41513;BME280;27244;59.940;30.280;2023-03-01T09:40:50;101226.19;;;23.49;26.34
41513;BME280;27244;59.940;30.280;2023-03-01T09:43:22;101237.31;;;23.56;26.32
41513;BME280;27244;59.940;30.280;2023-03-01T09:45:54;101238.91;;;23.57;26.32
41513;BME280;27244;59.940;30.280;2023-03-01T09:48:27;101237.31;;;23.56;26.40
41513;BME280;27244;59.940;30.280;2023-03-01T09:50:56;101226.63;;;23.67;25.99
41513;BME280;27244;59.940;30.280;2023-03-01T09:53:31;101231.59;;;23.60;26.44
41513;BME280;27244;59.940;30.280;2023-03-01T09:56:05;101228.88;;;23.56;26.51
41513;BME280;27244;59.940;30.280;2023-03-01T09:58:47;101228.44;;;23.58;26.44
41513;BME280;27244;59.940;30.280;2023-03-01T10:01:29;101229.25;;;23.58;26.51
41513;BME280;27244;59.940;30.280;2023-03-01T10:04:09;101227.66;;;23.57;26.57
41513;BME280;27244;59.940;30.280;2023-03-01T10:06:44;101234.50;;;23.56;26.61
41513;BME280;27244;59.940;30.280;2023-03-01T10:09:17;101216.00;;;23.55;26.68
41513;BME280;27244;59.940;30.280;2023-03-01T10:11:49;101214.78;;;23.56;26.84
41513;BME280;27244;59.940;30.280;2023-03-01T10:14:27;101214.38;;;23.58;26.73
41513;BME280;27244;59.940;30.280;2023-03-01T10:17:01;101213.19;;;23.55;27.03
41513;BME280;27244;59.940;30.280;2023-03-01T10:19:32;101211.16;;;23.56;26.85
41513;BME280;27244;59.940;30.280;2023-03-01T10:22:03;101196.34;;;23.51;26.78
41513;BME280;27244;59.940;30.280;2023-03-01T10:24:35;101190.66;;;23.55;26.98
41513;BME280;27244;59.940;30.280;2023-03-01T10:27:06;101181.78;;;23.57;26.79
41513;BME280;27244;59.940;30.280;2023-03-01T10:29:39;101182.13;;;23.59;26.70
41513;BME280;27244;59.940;30.280;2023-03-01T10:32:13;101183.81;;;23.56;26.85
41513;BME280;27244;59.940;30.280;2023-03-01T10:34:40;101184.19;;;23.58;26.88
41513;BME280;27244;59.940;30.280;2023-03-01T10:37:12;101179.31;;;23.59;26.78
41513;BME280;27244;59.940;30.280;2023-03-01T10:39:56;101157.59;;;23.59;26.79
41513;BME280;27244;59.940;30.280;2023-03-01T10:42:27;101168.94;;;23.56;26.87
41513;BME280;27244;59.940;30.280;2023-03-01T10:44:55;101157.25;;;23.57;26.97
41513;BME280;27244;59.940;30.280;2023-03-01T10:47:26;101171.66;;;23.59;26.86
41513;BME280;27244;59.940;30.280;2023-03-01T10:50:00;101164.81;;;23.60;26.62
41513;BME280;27244;59.940;30.280;2023-03-01T10:52:30;101152.75;;;23.60;26.92
41513;BME280;27244;59.940;30.280;2023-03-01T10:54:59;101150.38;;;23.58;27.04
41513;BME280;27244;59.940;30.280;2023-03-01T10:57:33;101160.34;;;23.63;26.57
41513;BME280;27244;59.940;30.280;2023-03-01T11:00:21;101138.97;;;23.65;26.81
41513;BME280;27244;59.940;30.280;2023-03-01T11:03:01;101148.72;;;23.61;26.87
41513;BME280;27244;59.940;30.280;2023-03-01T11:05:29;101127.50;;;23.56;26.89
41513;BME280;27244;59.940;30.280;2023-03-01T11:08:01;101134.22;;;23.62;26.97
41513;BME280;27244;59.940;30.280;2023-03-01T11:10:29;101127.88;;;23.58;26.91
41513;BME280;27244;59.940;30.280;2023-03-01T11:13:07;101122.06;;;23.65;26.87
41513;BME280;27244;59.940;30.280;2023-03-01T11:15:35;101103.09;;;23.49;26.89
41513;BME280;27244;59.940;30.280;2023-03-01T11:18:04;101116.53;;;23.62;26.91
41513;BME280;27244;59.940;30.280;2023-03-01T11:20:34;101116.94;;;23.60;26.87
41513;BME280;27244;59.940;30.280;2023-03-01T11:23:04;101098.44;;;23.59;27.05
41513;BME280;27244;59.940;30.280;2023-03-01T11:25:36;101102.38;;;23.65;26.93
41513;BME280;27244;59.940;30.280;2023-03-01T11:28:22;101054.88;;;23.47;26.96
41513;BME280;27244;59.940;30.280;2023-03-01T11:30:56;101081.47;;;23.63;26.91
41513;BME280;27244;59.940;30.280;2023-03-01T11:33:34;101065.19;;;23.54;26.95
41513;BME280;27244;59.940;30.280;2023-03-01T11:36:06;101087.91;;;23.63;26.94
41513;BME280;27244;59.940;30.280;2023-03-01T11:38:35;101086.75;;;23.61;26.97
41513;BME280;27244;59.940;30.280;2023-03-01T11:41:06;101086.34;;;23.62;27.00
41513;BME280;27244;59.940;30.280;2023-03-01T11:43:35;101093.75;;;23.72;26.60
41513;BME280;27244;59.940;30.280;2023-03-01T11:46:25;101083.78;;;23.68;26.92
41513;BME280;27244;59.940;30.280;2023-03-01T11:49:06;101086.69;;;23.64;26.90
41513;BME280;27244;59.940;30.280;2023-03-01T11:51:45;101077.16;;;23.58;26.89
41513;BME280;27244;59.940;30.280;2023-03-01T11:54:29;101073.19;;;23.56;27.05
41513;BME280;27244;59.940;30.280;2023-03-01T11:57:02;101077.50;;;23.60;27.01
41513;BME280;27244;59.940;30.280;2023-03-01T11:59:43;101071.88;;;23.60;26.96
41513;BME280;27244;59.940;30.280;2023-03-01T12:02:37;101072.31;;;23.59;27.01
41513;BME280;27244;59.940;30.280;2023-03-01T12:05:20;101074.19;;;23.65;27.01
41513;BME280;27244;59.940;30.280;2023-03-01T12:07:55;101075.06;;;23.62;27.13
41513;BME280;27244;59.940;30.280;2023-03-01T12:10:28;101072.69;;;23.61;27.16
41513;BME280;27244;59.940;30.280;2023-03-01T12:16:04;101063.72;;;23.66;27.08
41513;BME280;27244;59.940;30.280;2023-03-01T12:19:07;101046.91;;;23.62;26.99
41513;BME280;27244;59.940;30.280;2023-03-01T12:21:49;101055.69;;;23.64;27.07
41513;BME280;27244;59.940;30.280;2023-03-01T12:24:36;101043.72;;;23.60;27.07
41513;BME280;27244;59.940;30.280;2023-03-01T12:27:26;101046.13;;;23.62;27.10
41513;BME280;27244;59.940;30.280;2023-03-01T12:30:00;101053.38;;;23.59;27.41
41513;BME280;27244;59.940;30.280;2023-03-01T12:32:40;101055.34;;;23.62;27.12
41513;BME280;27244;59.940;30.280;2023-03-01T12:35:32;101039.94;;;23.67;27.01
41513;BME280;27244;59.940;30.280;2023-03-01T12:38:15;101035.19;;;23.64;27.04
41513;BME280;27244;59.940;30.280;2023-03-01T12:41:05;101013.63;;;23.57;26.99
41513;BME280;27244;59.940;30.280;2023-03-01T12:43:48;101030.34;;;23.64;27.06
41513;BME280;27244;59.940;30.280;2023-03-01T12:46:34;101021.03;;;23.67;27.14
41513;BME280;27244;59.940;30.280;2023-03-01T12:49:08;101015.06;;;23.65;27.07
41513;BME280;27244;59.940;30.280;2023-03-01T12:51:36;101012.41;;;23.58;27.23
41513;BME280;27244;59.940;30.280;2023-03-01T12:54:14;101016.34;;;23.61;27.21
41513;BME280;27244;59.940;30.280;2023-03-01T12:56:42;101003.16;;;23.58;27.02
41513;BME280;27244;59.940;30.280;2023-03-01T12:59:20;101007.91;;;23.61;27.13